< < Back
Terminal Aerodrome Forecast


Current Version              Previous Versions:   1  2  3  4  5  6  7  8  9  

Terminal Aerodrome Forecast

640
FTUS42 KTAE 062320
TAFVLD
TAF
KVLD 062320Z 0700/0724 03008KT P6SM BKN050
      TEMPO 0700/0704 5SM -SHRA BR
     FM071600 34008G18KT P6SM SKC=



Latest METAR

169
SAUS70 KWBC 070100 RRE
MTRVLD
METAR KVLD 070053Z 03008KT 10SM -RA FEW046 OVC070 06/04 A3018 RMK AO2
RAB01 SLP229 P0003 T00610044


USA.gov is the U.S. government's official web portal to all federal, state and local government web resources and services.